createdAt,value
2023-04-02T00:00:36.201Z,1008.99
2023-04-02T00:01:36.155Z,1009.06
2023-04-02T00:02:36.210Z,1009.00
2023-04-02T00:03:36.236Z,1009.07
2023-04-02T00:04:36.095Z,1008.98
2023-04-02T00:05:36.405Z,1009.09
2023-04-02T00:06:36.223Z,1009.07
2023-04-02T00:07:36.076Z,1009.10
2023-04-02T00:08:36.044Z,1009.14
2023-04-02T00:09:36.077Z,1009.22
2023-04-02T00:10:36.043Z,1009.20
2023-04-02T00:11:36.029Z,1009.23
2023-04-02T00:12:36.038Z,1009.26
2023-04-02T00:13:36.105Z,1009.23
2023-04-02T00:14:35.954Z,1009.26
2023-04-02T00:15:36.343Z,1009.32
2023-04-02T00:16:35.971Z,1009.24
2023-04-02T00:17:35.970Z,1009.27
2023-04-02T00:18:35.968Z,1009.33
2023-04-02T00:19:35.929Z,1009.31
2023-04-02T00:20:35.900Z,1009.35
2023-04-02T00:21:36.359Z,1009.35
2023-04-02T00:22:35.863Z,1009.43
2023-04-02T00:23:35.897Z,1009.46
2023-04-02T00:24:35.968Z,1009.43
2023-04-02T00:25:36.098Z,1009.48
2023-04-02T00:26:35.809Z,1009.49
2023-04-02T00:27:35.835Z,1009.48
2023-04-02T00:28:35.775Z,1009.56
2023-04-02T00:29:35.824Z,1009.54
2023-04-02T00:30:35.810Z,1009.52
2023-04-02T00:31:35.805Z,1009.54
2023-04-02T00:32:35.809Z,1009.55
2023-04-02T00:33:35.755Z,1009.57
2023-04-02T00:34:35.696Z,1009.62
2023-04-02T00:35:35.990Z,1009.66
2023-04-02T00:36:35.801Z,1009.61
2023-04-02T00:37:35.700Z,1009.66
2023-04-02T00:38:35.684Z,1009.66
2023-04-02T00:39:35.670Z,1009.66
2023-04-02T00:40:35.644Z,1009.68
2023-04-02T00:41:35.664Z,1009.72
2023-04-02T00:42:35.709Z,1009.72
2023-04-02T00:43:35.636Z,1009.71
2023-04-02T00:44:35.556Z,1009.76
2023-04-02T00:45:35.988Z,1009.77
2023-04-02T00:46:35.569Z,1009.73
2023-04-02T00:47:35.592Z,1009.78
2023-04-02T00:48:35.580Z,1009.84
2023-04-02T00:49:35.553Z,1009.81
2023-04-02T00:50:35.492Z,1009.85
2023-04-02T00:51:35.551Z,1009.85
2023-04-02T00:52:35.491Z,1009.87
2023-04-02T00:53:35.521Z,1009.94
2023-04-02T00:54:35.520Z,1010.00
2023-04-02T00:55:35.723Z,1010.01
2023-04-02T00:56:35.420Z,1010.00
2023-04-02T00:57:35.463Z,1010.05
2023-04-02T00:58:35.470Z,1009.98
2023-04-02T00:59:35.430Z,1010.06
2023-04-02T01:00:35.439Z,1010.10
2023-04-02T01:01:35.393Z,1010.04
2023-04-02T01:02:35.445Z,1010.06
2023-04-02T01:03:35.894Z,1010.13
2023-04-02T01:04:35.318Z,1010.16
2023-04-02T01:05:35.743Z,1010.16
2023-04-02T01:06:35.348Z,1010.17
2023-04-02T01:07:35.290Z,1010.20
2023-04-02T01:08:35.269Z,1010.22
2023-04-02T01:09:35.272Z,1010.22
2023-04-02T01:10:35.204Z,1010.22
2023-04-02T01:11:35.269Z,1010.23
2023-04-02T01:12:35.321Z,1010.22
2023-04-02T01:13:35.219Z,1010.21
2023-04-02T01:14:35.176Z,1010.30
2023-04-02T01:15:35.327Z,1010.35
2023-04-02T01:16:35.132Z,1010.32
2023-04-02T01:17:35.228Z,1010.28
2023-04-02T01:18:35.159Z,1010.24
2023-04-02T01:19:36.092Z,1010.37
2023-04-02T01:20:35.102Z,1010.40
2023-04-02T01:21:35.087Z,1010.41
2023-04-02T01:22:35.078Z,1010.36
2023-04-02T01:23:35.090Z,1010.44
2023-04-02T01:24:35.079Z,1010.41
2023-04-02T01:25:35.222Z,1010.44
2023-04-02T01:26:35.019Z,1010.44
2023-04-02T01:27:35.006Z,1010.50
2023-04-02T01:28:34.970Z,1010.49
2023-04-02T01:29:35.005Z,1010.47
2023-04-02T01:30:35.082Z,1010.51
2023-04-02T01:31:34.994Z,1010.54
2023-04-02T01:32:34.961Z,1010.57
2023-04-02T01:33:34.941Z,1010.58
2023-04-02T01:34:34.918Z,1010.66
2023-04-02T01:35:35.064Z,1010.63
2023-04-02T01:36:34.975Z,1010.65
2023-04-02T01:37:34.930Z,1010.63
2023-04-02T01:38:34.874Z,1010.67
2023-04-02T01:39:34.854Z,1010.72
2023-04-02T01:40:34.861Z,1010.71
2023-04-02T01:41:34.822Z,1010.74
2023-04-02T01:42:34.815Z,1010.75
2023-04-02T01:43:34.841Z,1010.72
2023-04-02T01:44:34.757Z,1010.81
2023-04-02T01:45:35.159Z,1010.80
2023-04-02T01:46:34.791Z,1010.82
2023-04-02T01:47:34.752Z,1010.85
2023-04-02T01:48:34.770Z,1010.89
2023-04-02T01:49:34.706Z,1010.84
2023-04-02T01:50:34.694Z,1010.89
2023-04-02T01:51:34.719Z,1010.91
2023-04-02T01:52:34.645Z,1010.95
2023-04-02T01:53:34.709Z,1011.00
2023-04-02T01:54:34.685Z,1010.98
2023-04-02T01:55:34.864Z,1011.01
2023-04-02T01:56:34.639Z,1011.02
2023-04-02T01:57:34.626Z,1011.09
2023-04-02T01:58:34.566Z,1011.09
2023-04-02T01:59:34.623Z,1011.17
2023-04-02T02:00:34.690Z,1011.09
2023-04-02T02:01:34.560Z,1011.14
2023-04-02T02:02:34.627Z,1011.20
2023-04-02T02:03:34.582Z,1011.22
2023-04-02T02:04:34.489Z,1011.24
2023-04-02T02:05:34.699Z,1011.22
2023-04-02T02:06:34.632Z,1011.29
2023-04-02T02:07:34.476Z,1011.28
2023-04-02T02:08:34.584Z,1011.27
2023-04-02T02:09:34.458Z,1011.31
2023-04-02T02:10:34.429Z,1011.33
2023-04-02T02:11:34.470Z,1011.35
2023-04-02T02:12:34.423Z,1011.35
2023-04-02T02:13:34.424Z,1011.36
2023-04-02T02:14:34.387Z,1011.40
2023-04-02T02:15:34.661Z,1011.44
2023-04-02T02:16:34.367Z,1011.46
2023-04-02T02:17:34.458Z,1011.51
2023-04-02T02:18:34.448Z,1011.53
2023-04-02T02:19:34.347Z,1011.51
2023-04-02T02:20:34.306Z,1011.48
2023-04-02T02:21:34.287Z,1011.55
2023-04-02T02:22:34.278Z,1011.53
2023-04-02T02:23:34.293Z,1011.56
2023-04-02T02:24:34.264Z,1011.61
2023-04-02T02:25:34.531Z,1011.58
2023-04-02T02:26:34.221Z,1011.64
2023-04-02T02:27:34.210Z,1011.64
2023-04-02T02:28:34.199Z,1011.69
2023-04-02T02:29:34.177Z,1011.66
2023-04-02T02:30:34.165Z,1011.72
2023-04-02T02:31:34.233Z,1011.73
2023-04-02T02:32:34.168Z,1011.70
2023-04-02T02:33:34.160Z,1011.75
2023-04-02T02:34:34.091Z,1011.78
2023-04-02T02:35:34.526Z,1011.82
2023-04-02T02:36:34.118Z,1011.76
2023-04-02T02:37:34.105Z,1011.80
2023-04-02T02:38:34.059Z,1011.78
2023-04-02T02:39:34.080Z,1011.85
2023-04-02T02:40:34.033Z,1011.89
2023-04-02T02:41:34.026Z,1011.94
2023-04-02T02:42:34.121Z,1011.94
2023-04-02T02:43:34.035Z,1011.99
2023-04-02T02:44:33.954Z,1012.02
2023-04-02T02:45:34.343Z,1012.07
2023-04-02T02:46:33.956Z,1012.08
2023-04-02T02:47:33.971Z,1012.08
2023-04-02T02:48:33.986Z,1012.08
2023-04-02T02:49:33.888Z,1012.11
2023-04-02T02:50:33.910Z,1012.15
2023-04-02T02:51:33.882Z,1012.17
2023-04-02T02:52:33.862Z,1012.17
2023-04-02T02:53:33.879Z,1012.21
2023-04-02T02:54:34.006Z,1012.20
2023-04-02T02:55:33.984Z,1012.23
2023-04-02T02:56:33.867Z,1012.22
2023-04-02T02:57:33.816Z,1012.29
2023-04-02T02:58:33.785Z,1012.27
2023-04-02T02:59:33.821Z,1012.31
2023-04-02T03:00:33.878Z,1012.30
2023-04-02T03:01:33.776Z,1012.32
2023-04-02T03:02:33.882Z,1012.35
2023-04-02T03:03:33.799Z,1012.45
2023-04-02T03:04:33.712Z,1012.47
2023-04-02T03:05:33.944Z,1012.42
2023-04-02T03:06:33.752Z,1012.52
2023-04-02T03:07:33.660Z,1012.42
2023-04-02T03:08:33.698Z,1012.57
2023-04-02T03:09:33.618Z,1012.57
2023-04-02T03:10:33.630Z,1012.55
2023-04-02T03:11:33.620Z,1012.65
2023-04-02T03:12:33.739Z,1012.61
2023-04-02T03:13:33.598Z,1012.62
2023-04-02T03:14:33.603Z,1012.68
2023-04-02T03:15:34.031Z,1012.74
2023-04-02T03:16:33.581Z,1012.75
2023-04-02T03:17:33.520Z,1012.70
2023-04-02T03:18:33.631Z,1012.70
2023-04-02T03:19:33.536Z,1012.73
2023-04-02T03:20:33.530Z,1012.75
2023-04-02T03:21:33.453Z,1012.74
2023-04-02T03:22:33.495Z,1012.76
2023-04-02T03:23:33.458Z,1012.73
2023-04-02T03:24:33.563Z,1012.83
2023-04-02T03:25:33.621Z,1012.77
2023-04-02T03:26:33.463Z,1012.81
2023-04-02T03:27:33.385Z,1012.84
2023-04-02T03:28:33.432Z,1012.85
2023-04-02T03:29:33.354Z,1012.90
2023-04-02T03:30:33.406Z,1012.88
2023-04-02T03:31:33.400Z,1012.91
2023-04-02T03:32:33.365Z,1012.97
2023-04-02T03:33:33.324Z,1012.92
2023-04-02T03:34:33.346Z,1012.88
2023-04-02T03:35:33.590Z,1012.96
2023-04-02T03:36:33.329Z,1012.94
2023-04-02T03:37:33.277Z,1012.96
2023-04-02T03:38:33.301Z,1013.00
2023-04-02T03:39:33.227Z,1012.96
2023-04-02T03:40:33.266Z,1012.97
2023-04-02T03:41:33.236Z,1013.02
2023-04-02T03:42:33.265Z,1013.06
2023-04-02T03:43:33.194Z,1013.05
2023-04-02T03:44:33.208Z,1013.10
2023-04-02T03:45:33.339Z,1013.06
2023-04-02T03:46:33.243Z,1013.12
2023-04-02T03:47:33.179Z,1013.18
2023-04-02T03:48:33.184Z,1013.22
2023-04-02T03:49:33.100Z,1013.15
2023-04-02T03:50:33.120Z,1013.17
2023-04-02T03:51:33.092Z,1013.26
2023-04-02T03:52:33.082Z,1013.22
2023-04-02T03:53:33.063Z,1013.28
2023-04-02T03:54:33.150Z,1013.30
2023-04-02T03:55:33.289Z,1013.28
2023-04-02T03:56:33.058Z,1013.34
2023-04-02T03:57:33.036Z,1013.41
2023-04-02T03:58:33.956Z,1013.33
2023-04-02T03:59:32.988Z,1013.39
2023-04-02T04:00:33.013Z,1013.46
2023-04-02T04:01:33.062Z,1013.41
2023-04-02T04:02:32.989Z,1013.49
2023-04-02T04:03:32.947Z,1013.59
2023-04-02T04:04:33.058Z,1013.56
2023-04-02T04:05:33.055Z,1013.54
2023-04-02T04:06:32.941Z,1013.60
2023-04-02T04:07:32.914Z,1013.58
2023-04-02T04:08:32.904Z,1013.62
2023-04-02T04:09:32.839Z,1013.65
2023-04-02T04:10:32.856Z,1013.65
2023-04-02T04:11:32.817Z,1013.67
2023-04-02T04:12:32.840Z,1013.69
2023-04-02T04:13:32.816Z,1013.71
2023-04-02T04:14:32.819Z,1013.76
2023-04-02T04:15:32.908Z,1013.73
2023-04-02T04:16:32.818Z,1013.79
2023-04-02T04:17:32.757Z,1013.76
2023-04-02T04:18:32.860Z,1013.79
2023-04-02T04:19:32.720Z,1013.77
2023-04-02T04:20:32.701Z,1013.79
2023-04-02T04:21:32.694Z,1013.85
2023-04-02T04:22:32.742Z,1013.85
2023-04-02T04:23:32.653Z,1013.90
2023-04-02T04:24:32.690Z,1013.94
2023-04-02T04:25:32.633Z,1013.97
2023-04-02T04:26:32.658Z,1013.92
2023-04-02T04:27:32.588Z,1014.00
2023-04-02T04:28:32.641Z,1013.93
2023-04-02T04:29:32.582Z,1013.96
2023-04-02T04:30:32.607Z,1013.94
2023-04-02T04:31:32.579Z,1013.99
2023-04-02T04:32:32.627Z,1014.07
2023-04-02T04:33:32.532Z,1014.06
2023-04-02T04:34:32.550Z,1014.08
2023-04-02T04:35:32.546Z,1014.08
2023-04-02T04:36:32.568Z,1014.09
2023-04-02T04:37:32.453Z,1014.16
2023-04-02T04:38:32.464Z,1014.15
2023-04-02T04:39:32.458Z,1014.15
2023-04-02T04:40:32.481Z,1014.20
2023-04-02T04:41:32.399Z,1014.23
2023-04-02T04:42:32.458Z,1014.27
2023-04-02T04:43:32.404Z,1014.22
2023-04-02T04:44:32.389Z,1014.27
2023-04-02T04:45:32.606Z,1014.29
2023-04-02T04:46:32.432Z,1014.28
2023-04-02T04:47:32.349Z,1014.32
2023-04-02T04:49:32.329Z,1014.33
2023-04-02T04:50:32.314Z,1014.36
2023-04-02T04:51:32.291Z,1014.40
2023-04-02T04:52:32.307Z,1014.42
2023-04-02T04:53:32.283Z,1014.44
2023-04-02T04:54:32.328Z,1014.40
2023-04-02T04:55:32.232Z,1014.49
2023-04-02T04:56:32.271Z,1014.53
2023-04-02T04:57:32.204Z,1014.51
2023-04-02T04:58:32.231Z,1014.54
2023-04-02T04:59:32.226Z,1014.63
2023-04-02T05:00:32.206Z,1014.65
2023-04-02T05:01:32.180Z,1014.67
2023-04-02T05:02:32.247Z,1014.67
2023-04-02T05:03:32.127Z,1014.65
2023-04-02T05:04:32.219Z,1014.74
2023-04-02T05:05:32.142Z,1014.76
2023-04-02T05:06:32.212Z,1014.74
2023-04-02T05:07:32.099Z,1014.79
2023-04-02T05:08:32.069Z,1014.80
2023-04-02T05:09:32.065Z,1014.80
2023-04-02T05:10:32.097Z,1014.84
2023-04-02T05:11:32.007Z,1014.86
2023-04-02T05:12:32.136Z,1014.81
2023-04-02T05:13:32.002Z,1014.86
2023-04-02T05:14:32.018Z,1014.92
2023-04-02T05:15:32.012Z,1014.95
2023-04-02T05:16:32.113Z,1014.95
2023-04-02T05:17:31.963Z,1014.98
2023-04-02T05:18:32.059Z,1014.99
2023-04-02T05:19:31.922Z,1015.03
2023-04-02T05:20:31.918Z,1015.10
2023-04-02T05:21:31.898Z,1015.03
2023-04-02T05:22:31.912Z,1015.11
2023-04-02T05:23:31.853Z,1015.05
2023-04-02T05:24:32.012Z,1015.10
2023-04-02T05:25:31.822Z,1015.18
2023-04-02T05:26:31.845Z,1015.23
2023-04-02T05:27:31.839Z,1015.21
2023-04-02T05:28:31.837Z,1015.18
2023-04-02T05:29:31.771Z,1015.22
2023-04-02T05:30:31.831Z,1015.26
2023-04-02T05:31:31.802Z,1015.27
2023-04-02T05:32:31.805Z,1015.28
2023-04-02T05:33:31.740Z,1015.26
2023-04-02T05:34:31.756Z,1015.29
2023-04-02T05:35:31.716Z,1015.31
2023-04-02T05:36:31.804Z,1015.33
2023-04-02T05:37:31.662Z,1015.44
2023-04-02T05:38:31.677Z,1015.36
2023-04-02T05:39:31.662Z,1015.41
2023-04-02T05:40:31.656Z,1015.41
2023-04-02T05:41:31.661Z,1015.47
2023-04-02T05:42:31.700Z,1015.44
2023-04-02T05:43:31.588Z,1015.51
2023-04-02T05:44:31.619Z,1015.49
2023-04-02T05:45:31.592Z,1015.55
2023-04-02T05:46:31.619Z,1015.65
2023-04-02T05:47:31.619Z,1015.58
2023-04-02T05:48:31.686Z,1015.57
2023-04-02T05:49:31.521Z,1015.61
2023-04-02T05:50:31.536Z,1015.62
2023-04-02T05:51:31.524Z,1015.64
2023-04-02T05:52:31.502Z,1015.73
2023-04-02T05:53:31.489Z,1015.75
2023-04-02T05:54:31.523Z,1015.76
2023-04-02T05:55:31.429Z,1015.82
2023-04-02T05:56:31.473Z,1015.84
2023-04-02T05:57:42.110Z,1015.84
2023-04-02T05:58:36.213Z,1015.87
2023-04-02T05:59:31.405Z,1015.84
2023-04-02T06:00:31.460Z,1015.87
2023-04-02T06:01:31.396Z,1015.91
2023-04-02T06:02:31.557Z,1015.91
2023-04-02T06:03:31.374Z,1015.91
2023-04-02T06:04:31.387Z,1015.94
2023-04-02T06:05:31.294Z,1015.96
2023-04-02T06:06:31.421Z,1015.98
2023-04-02T06:07:31.289Z,1015.90
2023-04-02T06:08:31.313Z,1015.90
2023-04-02T06:09:31.267Z,1015.95
2023-04-02T06:10:31.284Z,1015.95
2023-04-02T06:11:31.225Z,1016.02
2023-04-02T06:12:31.285Z,1016.00
2023-04-02T06:13:31.215Z,1016.04
2023-04-02T06:14:31.212Z,1016.03
2023-04-02T06:15:31.190Z,1016.06
2023-04-02T06:16:31.227Z,1016.10
2023-04-02T06:17:31.160Z,1016.14
2023-04-02T06:18:31.214Z,1016.15
2023-04-02T06:19:31.134Z,1016.17
2023-04-02T06:20:31.119Z,1016.24
2023-04-02T06:21:31.126Z,1016.24
2023-04-02T06:22:31.130Z,1016.28
2023-04-02T06:23:31.272Z,1016.33
2023-04-02T06:24:31.110Z,1016.33
2023-04-02T06:25:31.031Z,1016.40
2023-04-02T06:26:31.042Z,1016.44
2023-04-02T06:27:31.015Z,1016.43
2023-04-02T06:28:31.029Z,1016.50
2023-04-02T06:29:31.010Z,1016.45
2023-04-02T06:30:31.057Z,1016.47
2023-04-02T06:31:30.969Z,1016.55
2023-04-02T06:32:30.974Z,1016.52
2023-04-02T06:33:30.945Z,1016.55
2023-04-02T06:34:30.983Z,1016.60
2023-04-02T06:35:30.903Z,1016.65
2023-04-02T06:36:31.056Z,1016.62
2023-04-02T06:37:30.869Z,1016.66
2023-04-02T06:38:30.913Z,1016.69
2023-04-02T06:39:30.877Z,1016.75
2023-04-02T06:40:30.855Z,1016.71
2023-04-02T06:41:30.838Z,1016.79
2023-04-02T06:42:30.893Z,1016.80
2023-04-02T06:43:30.800Z,1016.82
2023-04-02T06:44:30.834Z,1016.83
2023-04-02T06:45:30.784Z,1016.80
2023-04-02T06:46:30.898Z,1016.87
2023-04-02T06:47:30.779Z,1016.82
2023-04-02T06:48:30.817Z,1016.91
2023-04-02T06:49:30.705Z,1016.82
2023-04-02T06:50:30.724Z,1016.93
2023-04-02T06:51:30.702Z,1016.94
2023-04-02T06:52:30.706Z,1016.94
2023-04-02T06:53:30.716Z,1016.98
2023-04-02T06:54:30.806Z,1016.91
2023-04-02T06:55:30.665Z,1017.00
2023-04-02T06:56:30.705Z,1016.98
2023-04-02T06:57:30.684Z,1016.96
2023-04-02T06:58:30.607Z,1016.99
2023-04-02T06:59:30.630Z,1017.07
2023-04-02T07:00:30.620Z,1017.07
2023-04-02T07:01:30.647Z,1017.08
2023-04-02T07:02:30.604Z,1017.10
2023-04-02T07:03:30.524Z,1017.17
2023-04-02T07:04:30.519Z,1017.20
2023-04-02T07:05:30.583Z,1017.19
2023-04-02T07:06:30.622Z,1017.17
2023-04-02T07:07:30.498Z,1017.18
2023-04-02T07:08:30.481Z,1017.20
2023-04-02T07:09:30.464Z,1017.25
2023-04-02T07:10:30.447Z,1017.23
2023-04-02T07:11:30.456Z,1017.28
2023-04-02T07:12:30.440Z,1017.27
2023-04-02T07:13:30.435Z,1017.33
2023-04-02T07:14:30.390Z,1017.30
2023-04-02T07:15:30.381Z,1017.32
2023-04-02T07:16:30.417Z,1017.31
2023-04-02T07:17:30.404Z,1017.37
2023-04-02T07:18:30.350Z,1017.43
2023-04-02T07:19:30.350Z,1017.36
2023-04-02T07:20:30.349Z,1017.42
2023-04-02T07:21:30.301Z,1017.43
2023-04-02T07:22:30.268Z,1017.48
2023-04-02T07:23:30.289Z,1017.50
2023-04-02T07:24:30.344Z,1017.52
2023-04-02T07:25:30.283Z,1017.53
2023-04-02T07:26:30.229Z,1017.51
2023-04-02T07:27:30.215Z,1017.47
2023-04-02T07:28:30.231Z,1017.60
2023-04-02T07:29:30.197Z,1017.56
2023-04-02T07:30:30.188Z,1017.60
2023-04-02T07:31:30.219Z,1017.59
2023-04-02T07:32:30.142Z,1017.62
2023-04-02T07:33:30.193Z,1017.66
2023-04-02T07:34:30.122Z,1017.71
2023-04-02T07:35:30.118Z,1017.65
2023-04-02T07:36:30.106Z,1017.71
2023-04-02T07:37:30.150Z,1017.68
2023-04-02T07:38:30.071Z,1017.66
2023-04-02T07:39:30.058Z,1017.69
2023-04-02T07:40:30.045Z,1017.76
2023-04-02T07:41:31.031Z,1017.81
2023-04-02T07:42:30.107Z,1017.79
2023-04-02T07:43:30.068Z,1017.83
2023-04-02T07:44:29.969Z,1017.84
2023-04-02T07:45:30.009Z,1017.84
2023-04-02T07:46:30.013Z,1017.83
2023-04-02T07:47:29.982Z,1017.86
2023-04-02T07:48:30.008Z,1017.91
2023-04-02T07:49:29.965Z,1017.88
2023-04-02T07:50:29.882Z,1017.94
2023-04-02T07:51:29.926Z,1017.87
2023-04-02T07:52:29.888Z,1017.94
2023-04-02T07:53:30.146Z,1017.98
2023-04-02T07:54:29.858Z,1017.97
2023-04-02T07:55:29.867Z,1018.01
2023-04-02T07:56:29.805Z,1018.00
2023-04-02T07:57:29.939Z,1018.05
2023-04-02T07:58:29.849Z,1018.12
2023-04-02T07:59:29.814Z,1018.11
2023-04-02T08:00:29.820Z,1018.11
2023-04-02T08:01:29.777Z,1018.08
2023-04-02T08:02:29.765Z,1018.05
2023-04-02T08:03:29.864Z,1018.06
2023-04-02T08:04:29.706Z,1018.09
2023-04-02T08:05:29.756Z,1018.10
2023-04-02T08:06:29.823Z,1018.15
2023-04-02T08:07:29.696Z,1018.14
2023-04-02T08:08:29.674Z,1018.11
2023-04-02T08:09:29.660Z,1018.07
2023-04-02T08:10:29.657Z,1018.14
2023-04-02T08:11:31.670Z,1018.19
2023-04-02T08:12:29.626Z,1018.27
2023-04-02T08:13:29.696Z,1018.22
2023-04-02T08:14:29.622Z,1018.24
2023-04-02T08:15:29.587Z,1018.31
2023-04-02T08:16:29.582Z,1018.32
2023-04-02T08:17:29.637Z,1018.37
2023-04-02T08:18:29.563Z,1018.37
2023-04-02T08:19:29.562Z,1018.34
2023-04-02T08:20:29.518Z,1018.39
2023-04-02T08:21:29.527Z,1018.40
2023-04-02T08:22:29.491Z,1018.48
2023-04-02T08:23:29.488Z,1018.48
2023-04-02T08:24:29.474Z,1018.47
2023-04-02T08:25:29.479Z,1018.50
2023-04-02T08:26:29.454Z,1018.45
2023-04-02T08:27:29.422Z,1018.59
2023-04-02T08:28:29.422Z,1018.62
2023-04-02T08:29:29.420Z,1018.60
2023-04-02T08:30:29.424Z,1018.65
2023-04-02T08:31:29.440Z,1018.63
2023-04-02T08:32:29.409Z,1018.64
2023-04-02T08:33:29.376Z,1018.66
2023-04-02T08:34:29.335Z,1018.66
2023-04-02T08:35:29.348Z,1018.71
2023-04-02T08:36:29.391Z,1018.66
2023-04-02T08:37:29.295Z,1018.67
2023-04-02T08:38:29.253Z,1018.68
2023-04-02T08:39:29.319Z,1018.72
2023-04-02T08:40:29.255Z,1018.77
2023-04-02T08:41:29.238Z,1018.78
2023-04-02T08:42:29.237Z,1018.76
2023-04-02T08:43:29.248Z,1018.75
2023-04-02T08:44:29.187Z,1018.74
2023-04-02T08:45:29.237Z,1018.77
2023-04-02T08:46:29.222Z,1018.79
2023-04-02T08:47:29.210Z,1018.86
2023-04-02T08:48:29.178Z,1018.86
2023-04-02T08:49:29.155Z,1018.82
2023-04-02T08:50:29.094Z,1018.80
2023-04-02T08:51:29.125Z,1018.90
2023-04-02T08:52:29.073Z,1018.85
2023-04-02T08:53:29.146Z,1018.91
2023-04-02T08:54:29.133Z,1018.96
2023-04-02T08:55:29.082Z,1018.92
2023-04-02T08:56:29.076Z,1018.98
2023-04-02T08:57:29.191Z,1018.99
2023-04-02T08:58:29.106Z,1018.99
2023-04-02T08:59:29.086Z,1019.00
2023-04-02T09:00:29.130Z,1019.03
2023-04-02T09:01:28.993Z,1018.99
2023-04-02T09:02:28.989Z,1019.04
2023-04-02T09:03:28.966Z,1019.04
2023-04-02T09:04:28.925Z,1019.07
2023-04-02T09:05:28.968Z,1018.99
2023-04-02T09:06:28.933Z,1019.08
2023-04-02T09:07:29.850Z,1019.10
2023-04-02T09:08:28.889Z,1019.15
2023-04-02T09:09:28.881Z,1019.14
2023-04-02T09:10:28.842Z,1019.13
2023-04-02T09:11:28.846Z,1019.15
2023-04-02T09:12:28.907Z,1019.19
2023-04-02T09:13:28.847Z,1019.17
2023-04-02T09:14:29.758Z,1019.19
2023-04-02T09:15:28.777Z,1019.19
2023-04-02T09:16:28.854Z,1019.25
2023-04-02T09:17:31.188Z,1019.23
2023-04-02T09:18:29.815Z,1019.16
2023-04-02T09:19:28.748Z,1019.29
2023-04-02T09:20:28.681Z,1019.17
2023-04-02T09:21:28.720Z,1019.22
2023-04-02T09:22:28.712Z,1019.24
2023-04-02T09:23:28.666Z,1019.28
2023-04-02T09:24:28.773Z,1019.25
2023-04-02T09:25:28.648Z,1019.28
2023-04-02T09:26:28.609Z,1019.26
2023-04-02T09:27:28.642Z,1019.25
2023-04-02T09:28:28.604Z,1019.28
2023-04-02T09:29:28.593Z,1019.31
2023-04-02T09:30:28.665Z,1019.33
2023-04-02T09:31:28.651Z,1019.39
2023-04-02T09:32:28.590Z,1019.42
2023-04-02T09:33:28.566Z,1019.44
2023-04-02T09:34:28.527Z,1019.40
2023-04-02T09:35:28.510Z,1019.40
2023-04-02T09:36:28.695Z,1019.40
2023-04-02T09:37:28.492Z,1019.48
2023-04-02T09:38:28.479Z,1019.45
2023-04-02T09:39:28.501Z,1019.49
2023-04-02T09:40:28.422Z,1019.44
2023-04-02T09:41:28.454Z,1019.50
2023-04-02T09:42:28.442Z,1019.47
2023-04-02T09:43:28.427Z,1019.49
2023-04-02T09:44:28.378Z,1019.53
2023-04-02T09:45:28.428Z,1019.57
2023-04-02T09:46:28.385Z,1019.60
2023-04-02T09:47:28.406Z,1019.64
2023-04-02T09:48:28.459Z,1019.54
2023-04-02T09:49:28.328Z,1019.59
2023-04-02T09:50:28.291Z,1019.58
2023-04-02T09:51:28.352Z,1019.56
2023-04-02T09:52:28.308Z,1019.62
2023-04-02T09:53:28.299Z,1019.63
2023-04-02T09:54:28.391Z,1019.52
2023-04-02T09:55:28.252Z,1019.61
2023-04-02T09:56:28.251Z,1019.61
2023-04-02T09:57:28.266Z,1019.77
2023-04-02T09:58:28.177Z,1019.72
2023-04-02T09:59:28.251Z,1019.76
2023-04-02T10:00:32.122Z,1019.76
2023-04-02T10:01:28.217Z,1019.76
2023-04-02T10:02:28.171Z,1019.78
2023-04-02T10:03:28.136Z,1019.81
2023-04-02T10:04:28.117Z,1019.87
2023-04-02T10:05:40.013Z,1019.91
2023-04-02T10:06:29.213Z,1019.98
2023-04-02T10:07:28.083Z,1019.97
2023-04-02T10:08:28.115Z,1019.97
2023-04-02T10:09:28.071Z,1019.96
2023-04-02T10:10:28.012Z,1020.00
2023-04-02T10:11:36.524Z,1020.00
2023-04-02T10:12:29.027Z,1019.98
2023-04-02T10:13:28.070Z,1020.02
2023-04-02T10:14:27.992Z,1020.04
2023-04-02T10:15:27.975Z,1019.99
2023-04-02T10:16:28.060Z,1020.08
2023-04-02T10:17:27.981Z,1020.07
2023-04-02T10:18:27.950Z,1020.10
2023-04-02T10:19:27.947Z,1020.05
2023-04-02T10:20:28.544Z,1020.09
2023-04-02T10:21:27.924Z,1020.11
2023-04-02T10:22:27.878Z,1020.07
2023-04-02T10:23:27.867Z,1020.06
2023-04-02T10:24:27.885Z,1020.12
2023-04-02T10:25:27.844Z,1020.09
2023-04-02T10:26:27.804Z,1020.14
2023-04-02T10:27:27.839Z,1020.13
2023-04-02T10:28:27.783Z,1020.13
2023-04-02T10:29:27.839Z,1020.17
2023-04-02T10:30:27.815Z,1020.18
2023-04-02T10:31:27.839Z,1020.13
2023-04-02T10:32:27.752Z,1020.24
2023-04-02T10:33:27.761Z,1020.31
2023-04-02T10:34:27.722Z,1020.29
2023-04-02T10:35:27.738Z,1020.21
2023-04-02T10:36:27.716Z,1020.32
2023-04-02T10:37:27.678Z,1020.30
2023-04-02T10:38:27.656Z,1020.34
2023-04-02T10:39:27.676Z,1020.29
2023-04-02T10:40:27.630Z,1020.27
2023-04-02T10:41:27.677Z,1020.37
2023-04-02T10:42:27.730Z,1020.35
2023-04-02T10:43:27.612Z,1020.37
2023-04-02T10:44:27.616Z,1020.39
2023-04-02T10:45:27.575Z,1020.42
2023-04-02T10:46:27.562Z,1020.42
2023-04-02T10:47:27.642Z,1020.43
2023-04-02T10:48:27.565Z,1020.37
2023-04-02T10:49:27.594Z,1020.42
2023-04-02T10:50:27.502Z,1020.41
2023-04-02T10:51:27.527Z,1020.37
2023-04-02T10:52:27.456Z,1020.41
2023-04-02T10:53:27.513Z,1020.49
2023-04-02T10:54:27.500Z,1020.41
2023-04-02T10:55:27.441Z,1020.45
2023-04-02T10:56:28.523Z,1020.42
2023-04-02T10:57:27.482Z,1020.42
2023-04-02T10:58:27.375Z,1020.39
2023-04-02T10:59:27.413Z,1020.44
2023-04-02T11:00:27.363Z,1020.49
2023-04-02T11:01:27.404Z,1020.44
2023-04-02T11:02:27.404Z,1020.53
2023-04-02T11:03:27.466Z,1020.50
2023-04-02T11:04:27.288Z,1020.58
2023-04-02T11:05:27.325Z,1020.53
2023-04-02T11:06:28.457Z,1020.62
2023-04-02T11:07:27.286Z,1020.61
2023-04-02T11:08:27.266Z,1020.59
2023-04-02T11:09:27.255Z,1020.57
2023-04-02T11:10:27.215Z,1020.58
2023-04-02T11:11:27.258Z,1020.64
2023-04-02T11:12:27.308Z,1020.69
2023-04-02T11:13:27.236Z,1020.62
2023-04-02T11:14:27.172Z,1020.61
2023-04-02T11:15:27.174Z,1020.59
2023-04-02T11:16:27.256Z,1020.59
2023-04-02T11:17:27.148Z,1020.61
2023-04-02T11:18:27.218Z,1020.61
2023-04-02T11:19:27.160Z,1020.62
2023-04-02T11:20:27.125Z,1020.55
2023-04-02T11:21:27.067Z,1020.56
2023-04-02T11:22:27.076Z,1020.57
2023-04-02T11:23:27.067Z,1020.53
2023-04-02T11:24:27.095Z,1020.57
2023-04-02T11:25:27.035Z,1020.55
2023-04-02T11:26:27.039Z,1020.49
2023-04-02T11:27:27.006Z,1020.58
2023-04-02T11:28:27.016Z,1020.59
2023-04-02T11:29:26.950Z,1020.60
2023-04-02T11:30:27.080Z,1020.60
2023-04-02T11:31:27.007Z,1020.61
2023-04-02T11:32:26.970Z,1020.53
2023-04-02T11:33:36.552Z,1020.55
2023-04-02T11:34:27.948Z,1020.58
2023-04-02T11:35:26.873Z,1020.59
2023-04-02T11:36:27.010Z,1020.61
2023-04-02T11:37:26.880Z,1020.57
2023-04-02T11:38:26.882Z,1020.62
2023-04-02T11:39:26.821Z,1020.57
2023-04-02T11:40:26.873Z,1020.58
2023-04-02T11:41:26.792Z,1020.63
2023-04-02T11:42:26.836Z,1020.53
2023-04-02T11:43:26.807Z,1020.56
2023-04-02T11:44:26.782Z,1020.48
2023-04-02T11:45:26.766Z,1020.49
2023-04-02T11:46:26.860Z,1020.48
2023-04-02T11:47:26.759Z,1020.49
2023-04-02T11:48:26.859Z,1020.44
2023-04-02T11:49:26.683Z,1020.45
2023-04-02T11:50:26.704Z,1020.47
2023-04-02T11:51:26.685Z,1020.39
2023-04-02T11:52:26.706Z,1020.43
2023-04-02T11:53:26.643Z,1020.40
2023-04-02T11:54:26.676Z,1020.48
2023-04-02T11:55:26.629Z,1020.40
2023-04-02T11:56:26.611Z,1020.42
2023-04-02T11:57:26.645Z,1020.45
2023-04-02T11:58:26.609Z,1020.36
2023-04-02T11:59:26.549Z,1020.41
2023-04-02T12:00:26.718Z,1020.41
2023-04-02T12:01:26.519Z,1020.34
2023-04-02T12:02:26.605Z,1020.24
2023-04-02T12:03:26.507Z,1020.42
2023-04-02T12:04:26.508Z,1020.42
2023-04-02T12:05:26.611Z,1020.42
2023-04-02T12:06:26.606Z,1020.46